sensor_id;sensor_type;location;lat;lon;timestamp;pressure;altitude;pressure_sealevel;temperature;humidity
62025;BME280;47978;49.118;12.146;2023-03-03T00:03:17;97577.22;;;0.02;83.27
62025;BME280;47978;49.118;12.146;2023-03-03T00:07:19;97574.25;;;0.03;83.38
62025;BME280;47978;49.118;12.146;2023-03-03T00:11:20;97582.28;;;-0.02;82.90
62025;BME280;47978;49.118;12.146;2023-03-03T00:15:23;97571.91;;;-0.05;82.96
62025;BME280;47978;49.118;12.146;2023-03-03T00:19:26;97570.22;;;-0.06;82.98
62025;BME280;47978;49.118;12.146;2023-03-03T00:23:29;97574.50;;;-0.10;83.22
62025;BME280;47978;49.118;12.146;2023-03-03T00:27:33;97571.03;;;-0.17;83.34
62025;BME280;47978;49.118;12.146;2023-03-03T00:31:35;97573.19;;;-0.08;82.68
62025;BME280;47978;49.118;12.146;2023-03-03T00:35:37;97575.31;;;-0.10;82.94
62025;BME280;47978;49.118;12.146;2023-03-03T00:39:39;97585.56;;;-0.35;83.73
62025;BME280;47978;49.118;12.146;2023-03-03T00:43:40;97579.66;;;-0.32;82.85
62025;BME280;47978;49.118;12.146;2023-03-03T00:47:42;97571.03;;;-0.29;83.02
62025;BME280;47978;49.118;12.146;2023-03-03T00:51:45;97573.84;;;-0.48;83.95
62025;BME280;47978;49.118;12.146;2023-03-03T00:55:47;97574.69;;;-0.47;83.66
62025;BME280;47978;49.118;12.146;2023-03-03T00:59:48;97577.19;;;-0.34;82.71
62025;BME280;47978;49.118;12.146;2023-03-03T01:03:50;97570.91;;;-0.46;83.10
62025;BME280;47978;49.118;12.146;2023-03-03T01:07:52;97575.28;;;-0.45;83.53
62025;BME280;47978;49.118;12.146;2023-03-03T01:11:54;97574.69;;;-0.47;83.14
62025;BME280;47978;49.118;12.146;2023-03-03T01:15:55;97575.16;;;-0.50;83.41
62025;BME280;47978;49.118;12.146;2023-03-03T01:19:57;97570.66;;;-0.56;83.46
62025;BME280;47978;49.118;12.146;2023-03-03T01:23:59;97575.63;;;-0.53;82.93
62025;BME280;47978;49.118;12.146;2023-03-03T01:28:01;97563.22;;;-0.49;82.71
62025;BME280;47978;49.118;12.146;2023-03-03T01:32:02;97565.91;;;-0.61;83.36
62025;BME280;47978;49.118;12.146;2023-03-03T01:36:04;97573.09;;;-0.66;83.67
62025;BME280;47978;49.118;12.146;2023-03-03T01:40:11;97568.09;;;-0.81;83.78
62025;BME280;47978;49.118;12.146;2023-03-03T01:44:14;97561.75;;;-0.75;83.31
62025;BME280;47978;49.118;12.146;2023-03-03T01:48:16;97561.09;;;-0.89;84.01
62025;BME280;47978;49.118;12.146;2023-03-03T01:52:21;97565.59;;;-0.83;83.77
62025;BME280;47978;49.118;12.146;2023-03-03T01:56:26;97568.06;;;-0.93;84.13
62025;BME280;47978;49.118;12.146;2023-03-03T02:00:27;97558.16;;;-0.99;84.40
62025;BME280;47978;49.118;12.146;2023-03-03T02:04:29;97555.91;;;-1.02;84.40
62025;BME280;47978;49.118;12.146;2023-03-03T02:08:33;97560.53;;;-1.21;85.23
62025;BME280;47978;49.118;12.146;2023-03-03T02:12:39;97565.19;;;-1.10;84.22
62025;BME280;47978;49.118;12.146;2023-03-03T02:16:41;97565.63;;;-1.13;84.46
62025;BME280;47978;49.118;12.146;2023-03-03T02:20:45;97568.19;;;-1.18;84.44
62025;BME280;47978;49.118;12.146;2023-03-03T02:24:50;97573.84;;;-1.20;84.99
62025;BME280;47978;49.118;12.146;2023-03-03T02:28:53;97576.13;;;-1.17;84.88
62025;BME280;47978;49.118;12.146;2023-03-03T02:32:54;97574.44;;;-1.18;85.14
62025;BME280;47978;49.118;12.146;2023-03-03T02:36:55;97575.66;;;-1.14;84.70
62025;BME280;47978;49.118;12.146;2023-03-03T02:40:58;97579.25;;;-1.20;84.74
62025;BME280;47978;49.118;12.146;2023-03-03T02:45:05;97582.84;;;-1.19;85.04
62025;BME280;47978;49.118;12.146;2023-03-03T02:49:07;97576.25;;;-1.11;84.23
62025;BME280;47978;49.118;12.146;2023-03-03T02:53:08;97582.44;;;-1.23;85.09
62025;BME280;47978;49.118;12.146;2023-03-03T02:57:10;97583.97;;;-1.27;84.51
62025;BME280;47978;49.118;12.146;2023-03-03T03:01:13;97593.28;;;-1.23;84.34
62025;BME280;47978;49.118;12.146;2023-03-03T03:05:14;97587.75;;;-1.28;85.01
62025;BME280;47978;49.118;12.146;2023-03-03T03:09:16;97585.50;;;-1.31;84.73
62025;BME280;47978;49.118;12.146;2023-03-03T03:13:18;97582.16;;;-1.33;84.99
62025;BME280;47978;49.118;12.146;2023-03-03T03:17:21;97578.38;;;-1.32;85.21
62025;BME280;47978;49.118;12.146;2023-03-03T03:21:22;97574.75;;;-1.26;84.37
62025;BME280;47978;49.118;12.146;2023-03-03T03:25:23;97572.25;;;-1.39;85.08
62025;BME280;47978;49.118;12.146;2023-03-03T03:29:25;97573.22;;;-1.52;85.34
62025;BME280;47978;49.118;12.146;2023-03-03T03:33:28;97576.06;;;-1.47;84.62
62025;BME280;47978;49.118;12.146;2023-03-03T03:37:29;97573.13;;;-1.45;84.62
62025;BME280;47978;49.118;12.146;2023-03-03T03:41:30;97573.97;;;-1.45;84.95
62025;BME280;47978;49.118;12.146;2023-03-03T03:45:32;97574.66;;;-1.49;84.59
62025;BME280;47978;49.118;12.146;2023-03-03T03:49:35;97581.50;;;-1.47;84.69
62025;BME280;47978;49.118;12.146;2023-03-03T03:53:36;97573.75;;;-1.62;84.74
62025;BME280;47978;49.118;12.146;2023-03-03T03:57:37;97576.16;;;-1.53;84.50
62025;BME280;47978;49.118;12.146;2023-03-03T04:01:39;97577.44;;;-1.74;85.03
62025;BME280;47978;49.118;12.146;2023-03-03T04:05:41;97593.41;;;-1.66;84.87
62025;BME280;47978;49.118;12.146;2023-03-03T04:09:43;97596.56;;;-1.51;84.53
62025;BME280;47978;49.118;12.146;2023-03-03T04:13:44;97592.94;;;-1.63;84.38
62025;BME280;47978;49.118;12.146;2023-03-03T04:17:46;97591.47;;;-1.59;83.89
62025;BME280;47978;49.118;12.146;2023-03-03T04:21:48;97591.75;;;-1.67;84.12
62025;BME280;47978;49.118;12.146;2023-03-03T04:25:51;97582.91;;;-1.63;84.16
62025;BME280;47978;49.118;12.146;2023-03-03T04:29:52;97590.38;;;-1.95;85.81
62025;BME280;47978;49.118;12.146;2023-03-03T04:33:53;97594.66;;;-1.87;86.23
62025;BME280;47978;49.118;12.146;2023-03-03T04:37:56;97595.72;;;-1.88;86.50
62025;BME280;47978;49.118;12.146;2023-03-03T04:41:57;97593.00;;;-1.88;86.87
62025;BME280;47978;49.118;12.146;2023-03-03T04:45:59;97607.00;;;-1.91;88.06
62025;BME280;47978;49.118;12.146;2023-03-03T04:50:00;97603.94;;;-1.76;87.00
62025;BME280;47978;49.118;12.146;2023-03-03T04:54:03;97604.31;;;-1.54;86.72
62025;BME280;47978;49.118;12.146;2023-03-03T04:58:04;97612.53;;;-1.61;87.46
62025;BME280;47978;49.118;12.146;2023-03-03T05:02:06;97598.88;;;-1.54;87.28
62025;BME280;47978;49.118;12.146;2023-03-03T05:06:08;97598.69;;;-1.53;87.10
62025;BME280;47978;49.118;12.146;2023-03-03T05:10:11;97598.50;;;-1.40;86.61
62025;BME280;47978;49.118;12.146;2023-03-03T05:14:12;97604.31;;;-1.36;86.48
62025;BME280;47978;49.118;12.146;2023-03-03T05:18:13;97608.91;;;-1.18;86.15
62025;BME280;47978;49.118;12.146;2023-03-03T05:22:15;97617.84;;;-1.18;86.06
62025;BME280;47978;49.118;12.146;2023-03-03T05:26:18;97609.00;;;-1.25;86.50
62025;BME280;47978;49.118;12.146;2023-03-03T05:30:19;97613.66;;;-1.14;85.85
62025;BME280;47978;49.118;12.146;2023-03-03T05:34:20;97616.38;;;-1.14;86.10
62025;BME280;47978;49.118;12.146;2023-03-03T05:38:22;97618.66;;;-0.99;85.50
62025;BME280;47978;49.118;12.146;2023-03-03T05:42:25;97620.88;;;-1.26;86.35
62025;BME280;47978;49.118;12.146;2023-03-03T05:46:27;97622.69;;;-1.38;86.99
62025;BME280;47978;49.118;12.146;2023-03-03T05:50:28;97633.34;;;-1.37;86.77
62025;BME280;47978;49.118;12.146;2023-03-03T05:54:30;97638.66;;;-1.30;86.19
62025;BME280;47978;49.118;12.146;2023-03-03T05:58:33;97633.34;;;-1.37;86.70
62025;BME280;47978;49.118;12.146;2023-03-03T06:02:34;97642.34;;;-1.43;86.47
62025;BME280;47978;49.118;12.146;2023-03-03T06:06:35;97643.41;;;-1.44;86.22
62025;BME280;47978;49.118;12.146;2023-03-03T06:10:37;97645.91;;;-1.42;86.18
62025;BME280;47978;49.118;12.146;2023-03-03T06:14:40;97643.88;;;-1.47;86.49
62025;BME280;47978;49.118;12.146;2023-03-03T06:18:41;97650.41;;;-1.54;86.81
62025;BME280;47978;49.118;12.146;2023-03-03T06:22:42;97656.81;;;-1.49;86.17
62025;BME280;47978;49.118;12.146;2023-03-03T06:26:44;97660.50;;;-1.43;86.21
62025;BME280;47978;49.118;12.146;2023-03-03T06:30:47;97660.59;;;-1.31;86.07
62025;BME280;47978;49.118;12.146;2023-03-03T06:34:48;97668.78;;;-1.20;85.26
62025;BME280;47978;49.118;12.146;2023-03-03T06:38:50;97664.44;;;-1.21;85.19
62025;BME280;47978;49.118;12.146;2023-03-03T06:42:51;97679.44;;;-1.18;85.41
62025;BME280;47978;49.118;12.146;2023-03-03T06:46:54;97683.34;;;-1.14;85.29
62025;BME280;47978;49.118;12.146;2023-03-03T06:50:55;97692.38;;;-0.83;83.74
62025;BME280;47978;49.118;12.146;2023-03-03T06:54:58;97688.09;;;-0.91;85.06
62025;BME280;47978;49.118;12.146;2023-03-03T06:59:00;97683.59;;;-0.67;84.58
62025;BME280;47978;49.118;12.146;2023-03-03T07:03:07;97688.09;;;-0.61;84.49
62025;BME280;47978;49.118;12.146;2023-03-03T07:07:14;97687.06;;;-0.18;83.48
62025;BME280;47978;49.118;12.146;2023-03-03T07:11:17;97701.09;;;0.21;82.40
62025;BME280;47978;49.118;12.146;2023-03-03T07:15:20;97694.16;;;0.49;81.30
62025;BME280;47978;49.118;12.146;2023-03-03T07:19:25;97696.72;;;0.79;80.35
62025;BME280;47978;49.118;12.146;2023-03-03T07:23:31;97696.44;;;1.04;79.51
62025;BME280;47978;49.118;12.146;2023-03-03T07:27:37;97701.50;;;1.24;78.94
62025;BME280;47978;49.118;12.146;2023-03-03T07:31:39;97703.34;;;1.35;78.90
62025;BME280;47978;49.118;12.146;2023-03-03T07:35:42;97701.28;;;1.54;78.02
62025;BME280;47978;49.118;12.146;2023-03-03T07:39:44;97704.72;;;1.78;76.59
62025;BME280;47978;49.118;12.146;2023-03-03T07:43:47;97702.13;;;2.00;74.12
62025;BME280;47978;49.118;12.146;2023-03-03T07:47:49;97709.91;;;2.08;72.30
62025;BME280;47978;49.118;12.146;2023-03-03T07:51:53;97716.63;;;2.17;71.64
62025;BME280;47978;49.118;12.146;2023-03-03T07:55:54;97724.81;;;2.51;70.38
62025;BME280;47978;49.118;12.146;2023-03-03T07:59:59;97719.56;;;2.83;69.17
62025;BME280;47978;49.118;12.146;2023-03-03T08:04:01;97724.06;;;3.11;68.73
62025;BME280;47978;49.118;12.146;2023-03-03T08:08:18;97710.72;;;3.37;66.91
62025;BME280;47978;49.118;12.146;2023-03-03T08:12:23;97706.03;;;3.54;66.36
62025;BME280;47978;49.118;12.146;2023-03-03T08:16:29;97708.22;;;3.79;65.70
62025;BME280;47978;49.118;12.146;2023-03-03T08:20:45;97712.84;;;4.06;64.87
62025;BME280;47978;49.118;12.146;2023-03-03T08:24:48;97723.47;;;4.29;65.29
62025;BME280;47978;49.118;12.146;2023-03-03T08:28:50;97736.63;;;4.60;62.65
62025;BME280;47978;49.118;12.146;2023-03-03T08:32:51;97736.06;;;5.00;61.64
62025;BME280;47978;49.118;12.146;2023-03-03T08:36:53;97736.66;;;5.02;59.26
62025;BME280;47978;49.118;12.146;2023-03-03T08:40:55;97739.16;;;4.71;60.22
62025;BME280;47978;49.118;12.146;2023-03-03T08:44:57;97749.25;;;5.03;59.69
62025;BME280;47978;49.118;12.146;2023-03-03T08:48:58;97757.84;;;5.17;59.18
62025;BME280;47978;49.118;12.146;2023-03-03T08:53:00;97757.84;;;5.17;59.20
62025;BME280;47978;49.118;12.146;2023-03-03T08:57:02;97764.94;;;5.13;59.28
62025;BME280;47978;49.118;12.146;2023-03-03T09:01:04;97766.38;;;5.26;60.06
62025;BME280;47978;49.118;12.146;2023-03-03T09:05:06;97757.66;;;5.34;57.27
62025;BME280;47978;49.118;12.146;2023-03-03T09:09:07;97759.88;;;5.37;57.81
62025;BME280;47978;49.118;12.146;2023-03-03T09:13:12;97752.59;;;5.58;57.14
62025;BME280;47978;49.118;12.146;2023-03-03T09:17:18;97759.56;;;5.91;56.97
62025;BME280;47978;49.118;12.146;2023-03-03T09:21:24;97760.25;;;6.29;56.22
62025;BME280;47978;49.118;12.146;2023-03-03T09:25:29;97756.16;;;6.47;55.89
62025;BME280;47978;49.118;12.146;2023-03-03T09:29:34;97747.66;;;6.69;55.79
62025;BME280;47978;49.118;12.146;2023-03-03T09:33:40;97749.59;;;6.89;54.15
62025;BME280;47978;49.118;12.146;2023-03-03T09:37:49;97738.56;;;7.04;54.45
62025;BME280;47978;49.118;12.146;2023-03-03T09:42:07;97751.44;;;7.19;54.03
62025;BME280;47978;49.118;12.146;2023-03-03T09:46:11;97733.00;;;7.35;53.51
62025;BME280;47978;49.118;12.146;2023-03-03T09:50:22;97743.97;;;7.45;53.60
62025;BME280;47978;49.118;12.146;2023-03-03T09:54:29;97738.53;;;7.19;53.45
62025;BME280;47978;49.118;12.146;2023-03-03T09:58:39;97737.94;;;7.43;54.94
62025;BME280;47978;49.118;12.146;2023-03-03T10:02:47;97736.53;;;7.46;55.49
62025;BME280;47978;49.118;12.146;2023-03-03T10:06:58;97744.44;;;7.68;55.87
62025;BME280;47978;49.118;12.146;2023-03-03T10:11:08;97742.44;;;7.88;55.58
62025;BME280;47978;49.118;12.146;2023-03-03T10:15:15;97751.09;;;8.11;54.59
62025;BME280;47978;49.118;12.146;2023-03-03T10:19:24;97744.63;;;8.41;54.25
62025;BME280;47978;49.118;12.146;2023-03-03T10:23:36;97747.75;;;8.19;53.89
62025;BME280;47978;49.118;12.146;2023-03-03T10:27:54;97751.59;;;8.28;54.06
62025;BME280;47978;49.118;12.146;2023-03-03T10:32:00;97747.63;;;8.45;53.66
62025;BME280;47978;49.118;12.146;2023-03-03T10:40:32;97739.91;;;8.47;53.51
62025;BME280;47978;49.118;12.146;2023-03-03T10:44:39;97748.97;;;8.52;55.23
62025;BME280;47978;49.118;12.146;2023-03-03T10:48:53;97739.50;;;8.64;52.99
62025;BME280;47978;49.118;12.146;2023-03-03T10:53:02;97742.19;;;8.74;53.96
62025;BME280;47978;49.118;12.146;2023-03-03T10:57:11;97732.22;;;8.78;52.51
62025;BME280;47978;49.118;12.146;2023-03-03T11:01:19;97733.19;;;8.63;53.37
62025;BME280;47978;49.118;12.146;2023-03-03T11:05:28;97727.66;;;8.63;53.20
62025;BME280;47978;49.118;12.146;2023-03-03T11:09:39;97730.31;;;8.73;53.89
62025;BME280;47978;49.118;12.146;2023-03-03T11:13:46;97733.19;;;8.63;52.66
62025;BME280;47978;49.118;12.146;2023-03-03T11:17:53;97737.78;;;8.73;54.49
62025;BME280;47978;49.118;12.146;2023-03-03T11:22:00;97736.53;;;8.89;52.30
62025;BME280;47978;49.118;12.146;2023-03-03T11:26:07;97721.25;;;9.02;52.30
62025;BME280;47978;49.118;12.146;2023-03-03T11:30:21;97720.69;;;9.05;52.47
62025;BME280;47978;49.118;12.146;2023-03-03T11:34:34;97724.75;;;9.13;52.35
62025;BME280;47978;49.118;12.146;2023-03-03T11:38:44;97723.34;;;9.15;52.33
62025;BME280;47978;49.118;12.146;2023-03-03T11:42:54;97724.41;;;9.19;52.67
62025;BME280;47978;49.118;12.146;2023-03-03T11:47:01;97718.44;;;9.36;53.10
62025;BME280;47978;49.118;12.146;2023-03-03T11:51:05;97721.53;;;9.30;52.09
62025;BME280;47978;49.118;12.146;2023-03-03T11:55:08;97718.03;;;9.48;51.70
62025;BME280;47978;49.118;12.146;2023-03-03T11:59:16;97711.63;;;9.53;51.88
62025;BME280;47978;49.118;12.146;2023-03-03T12:03:24;97706.91;;;9.53;52.42
62025;BME280;47978;49.118;12.146;2023-03-03T12:07:31;97703.97;;;9.68;51.71
62025;BME280;47978;49.118;12.146;2023-03-03T12:11:37;97699.28;;;9.69;51.68
62025;BME280;47978;49.118;12.146;2023-03-03T12:15:44;97693.19;;;9.91;50.98
62025;BME280;47978;49.118;12.146;2023-03-03T12:19:52;97680.81;;;10.07;50.25
62025;BME280;47978;49.118;12.146;2023-03-03T12:24:06;97676.47;;;10.01;50.47
62025;BME280;47978;49.118;12.146;2023-03-03T12:28:14;97685.50;;;10.07;50.34
62025;BME280;47978;49.118;12.146;2023-03-03T12:32:20;97670.19;;;9.96;50.40
62025;BME280;47978;49.118;12.146;2023-03-03T12:36:34;97663.06;;;10.13;49.22
62025;BME280;47978;49.118;12.146;2023-03-03T12:40:42;97661.38;;;10.12;49.39
62025;BME280;47978;49.118;12.146;2023-03-03T12:44:46;97655.78;;;10.18;49.49
62025;BME280;47978;49.118;12.146;2023-03-03T12:48:51;97649.56;;;10.31;51.05
62025;BME280;47978;49.118;12.146;2023-03-03T12:52:56;97649.75;;;10.53;49.71
62025;BME280;47978;49.118;12.146;2023-03-03T12:57:04;97658.31;;;10.52;48.89
62025;BME280;47978;49.118;12.146;2023-03-03T13:01:12;97644.69;;;10.42;48.91
62025;BME280;47978;49.118;12.146;2023-03-03T13:05:19;97641.00;;;10.46;48.23
62025;BME280;47978;49.118;12.146;2023-03-03T13:09:27;97639.38;;;10.45;48.13
62025;BME280;47978;49.118;12.146;2023-03-03T13:13:32;97636.41;;;10.55;48.01
62025;BME280;47978;49.118;12.146;2023-03-03T13:17:38;97636.84;;;10.63;49.15
62025;BME280;47978;49.118;12.146;2023-03-03T13:21:42;97635.69;;;10.50;48.08
62025;BME280;47978;49.118;12.146;2023-03-03T13:25:50;97641.44;;;10.53;47.89
62025;BME280;47978;49.118;12.146;2023-03-03T13:29:55;97642.06;;;10.50;47.93
62025;BME280;47978;49.118;12.146;2023-03-03T13:33:59;97649.19;;;10.70;48.12
62025;BME280;47978;49.118;12.146;2023-03-03T13:38:02;97638.84;;;10.76;47.87
62025;BME280;47978;49.118;12.146;2023-03-03T13:42:07;97644.03;;;10.64;47.30
62025;BME280;47978;49.118;12.146;2023-03-03T13:46:13;97637.06;;;10.66;47.22
62025;BME280;47978;49.118;12.146;2023-03-03T13:50:18;97636.16;;;10.71;47.47
62025;BME280;47978;49.118;12.146;2023-03-03T13:54:26;97628.84;;;10.61;47.76
62025;BME280;47978;49.118;12.146;2023-03-03T13:58:35;97630.22;;;10.77;47.81
62025;BME280;47978;49.118;12.146;2023-03-03T14:02:42;97618.88;;;10.93;46.93
62025;BME280;47978;49.118;12.146;2023-03-03T14:06:51;97614.59;;;11.00;45.76
62025;BME280;47978;49.118;12.146;2023-03-03T14:10:59;97621.34;;;10.94;45.73
62025;BME280;47978;49.118;12.146;2023-03-03T14:15:08;97613.78;;;11.00;45.95
62025;BME280;47978;49.118;12.146;2023-03-03T14:19:13;97611.03;;;11.14;45.21
62025;BME280;47978;49.118;12.146;2023-03-03T14:23:18;97613.97;;;11.03;44.62
62025;BME280;47978;49.118;12.146;2023-03-03T14:27:22;97613.94;;;10.90;45.25
62025;BME280;47978;49.118;12.146;2023-03-03T14:31:27;97613.34;;;10.79;45.11
62025;BME280;47978;49.118;12.146;2023-03-03T14:35:29;97607.69;;;10.84;44.99
62025;BME280;47978;49.118;12.146;2023-03-03T14:39:33;97602.16;;;10.84;44.50
62025;BME280;47978;49.118;12.146;2023-03-03T14:43:35;97600.75;;;11.00;44.28
62025;BME280;47978;49.118;12.146;2023-03-03T14:47:38;97601.97;;;10.80;44.21
62025;BME280;47978;49.118;12.146;2023-03-03T14:51:45;97597.03;;;10.77;44.38
62025;BME280;47978;49.118;12.146;2023-03-03T14:55:47;97596.03;;;10.87;43.65
62025;BME280;47978;49.118;12.146;2023-03-03T14:59:56;97586.50;;;10.79;43.96
62025;BME280;47978;49.118;12.146;2023-03-03T15:04:00;97588.31;;;10.84;43.83
62025;BME280;47978;49.118;12.146;2023-03-03T15:08:09;97590.50;;;10.73;43.72
62025;BME280;47978;49.118;12.146;2023-03-03T15:12:20;97580.22;;;10.60;43.98
62025;BME280;47978;49.118;12.146;2023-03-03T15:16:23;97566.38;;;10.60;43.86
62025;BME280;47978;49.118;12.146;2023-03-03T15:20:36;97576.44;;;10.56;43.51
62025;BME280;47978;49.118;12.146;2023-03-03T15:24:39;97573.66;;;10.56;43.48
62025;BME280;47978;49.118;12.146;2023-03-03T15:28:44;97580.94;;;10.66;42.87
62025;BME280;47978;49.118;12.146;2023-03-03T15:32:55;97577.41;;;10.46;42.87
62025;BME280;47978;49.118;12.146;2023-03-03T15:37:01;97582.69;;;10.62;42.81
62025;BME280;47978;49.118;12.146;2023-03-03T15:41:07;97586.75;;;10.64;42.31
62025;BME280;47978;49.118;12.146;2023-03-03T15:45:17;97590.03;;;10.52;42.76
62025;BME280;47978;49.118;12.146;2023-03-03T15:49:26;97586.09;;;10.40;43.04
62025;BME280;47978;49.118;12.146;2023-03-03T15:53:51;97590.03;;;10.52;41.50
62025;BME280;47978;49.118;12.146;2023-03-03T15:58:02;97596.97;;;10.36;42.38
62025;BME280;47978;49.118;12.146;2023-03-03T16:02:09;97594.59;;;10.24;42.81
62025;BME280;47978;49.118;12.146;2023-03-03T16:06:15;97590.22;;;10.23;43.77
62025;BME280;47978;49.118;12.146;2023-03-03T16:10:21;97596.28;;;10.06;44.76
62025;BME280;47978;49.118;12.146;2023-03-03T16:14:33;97607.84;;;9.89;49.99
62025;BME280;47978;49.118;12.146;2023-03-03T16:18:40;97613.38;;;9.52;52.92
62025;BME280;47978;49.118;12.146;2023-03-03T16:22:52;97624.38;;;9.09;55.96
62025;BME280;47978;49.118;12.146;2023-03-03T16:26:58;97619.81;;;8.70;57.25
62025;BME280;47978;49.118;12.146;2023-03-03T16:31:05;97628.28;;;8.49;57.66
62025;BME280;47978;49.118;12.146;2023-03-03T16:35:14;97623.94;;;8.04;58.20
62025;BME280;47978;49.118;12.146;2023-03-03T16:39:19;97632.31;;;7.88;59.14
62025;BME280;47978;49.118;12.146;2023-03-03T16:43:29;97635.81;;;7.55;59.94
62025;BME280;47978;49.118;12.146;2023-03-03T16:47:36;97646.94;;;7.24;60.72
62025;BME280;47978;49.118;12.146;2023-03-03T16:51:41;97644.53;;;6.97;61.49
62025;BME280;47978;49.118;12.146;2023-03-03T16:55:47;97651.19;;;6.75;63.47
62025;BME280;47978;49.118;12.146;2023-03-03T16:59:54;97655.34;;;6.32;64.67
62025;BME280;47978;49.118;12.146;2023-03-03T17:03:59;97660.97;;;5.69;65.92
62025;BME280;47978;49.118;12.146;2023-03-03T17:08:12;97662.25;;;5.36;66.48
62025;BME280;47978;49.118;12.146;2023-03-03T17:12:20;97678.53;;;5.00;68.97
62025;BME280;47978;49.118;12.146;2023-03-03T17:16:27;97687.34;;;4.65;69.08
62025;BME280;47978;49.118;12.146;2023-03-03T17:20:50;97689.97;;;4.49;70.05
62025;BME280;47978;49.118;12.146;2023-03-03T17:25:02;97687.47;;;4.43;70.06
62025;BME280;47978;49.118;12.146;2023-03-03T17:29:08;97686.66;;;4.10;70.83
62025;BME280;47978;49.118;12.146;2023-03-03T17:33:23;97702.44;;;4.03;71.12
62025;BME280;47978;49.118;12.146;2023-03-03T17:37:30;97712.97;;;3.89;71.57
62025;BME280;47978;49.118;12.146;2023-03-03T17:41:35;97711.56;;;3.87;71.48
62025;BME280;47978;49.118;12.146;2023-03-03T17:45:40;97709.88;;;3.80;71.87
62025;BME280;47978;49.118;12.146;2023-03-03T17:49:51;97718.50;;;3.67;71.65
62025;BME280;47978;49.118;12.146;2023-03-03T17:54:01;97724.72;;;3.41;72.82
62025;BME280;47978;49.118;12.146;2023-03-03T17:58:15;97726.16;;;3.26;73.17
62025;BME280;47978;49.118;12.146;2023-03-03T18:02:24;97729.16;;;3.25;73.00
62025;BME280;47978;49.118;12.146;2023-03-03T18:11:13;97733.41;;;2.77;75.13
62025;BME280;47978;49.118;12.146;2023-03-03T18:15:19;97734.22;;;2.77;74.95
62025;BME280;47978;49.118;12.146;2023-03-03T18:19:29;97741.19;;;2.68;75.28
62025;BME280;47978;49.118;12.146;2023-03-03T18:23:36;97742.44;;;2.60;75.58
62025;BME280;47978;49.118;12.146;2023-03-03T18:27:39;97746.66;;;2.34;76.93
62025;BME280;47978;49.118;12.146;2023-03-03T18:36:09;97753.00;;;2.40;76.31
62025;BME280;47978;49.118;12.146;2023-03-03T18:40:15;97759.78;;;2.37;76.62
62025;BME280;47978;49.118;12.146;2023-03-03T18:44:24;97770.41;;;2.22;77.20
62025;BME280;47978;49.118;12.146;2023-03-03T18:57:12;97776.78;;;2.11;77.75
62025;BME280;47978;49.118;12.146;2023-03-03T19:05:46;97785.91;;;2.05;78.13
62025;BME280;47978;49.118;12.146;2023-03-03T19:09:49;97778.50;;;2.00;78.72
62025;BME280;47978;49.118;12.146;2023-03-03T19:13:50;97787.34;;;2.07;78.34
62025;BME280;47978;49.118;12.146;2023-03-03T19:17:52;97790.00;;;1.90;78.67
62025;BME280;47978;49.118;12.146;2023-03-03T19:30:38;97781.84;;;1.90;78.99
62025;BME280;47978;49.118;12.146;2023-03-03T19:34:43;97780.84;;;1.79;79.22
62025;BME280;47978;49.118;12.146;2023-03-03T19:39:05;97781.34;;;1.65;79.75
62025;BME280;47978;49.118;12.146;2023-03-03T19:43:15;97787.16;;;1.56;79.82
62025;BME280;47978;49.118;12.146;2023-03-03T19:47:27;97787.63;;;1.53;80.03
62025;BME280;47978;49.118;12.146;2023-03-03T19:51:31;97793.00;;;1.48;80.03
62025;BME280;47978;49.118;12.146;2023-03-03T19:55:39;97796.59;;;1.37;80.18
62025;BME280;47978;49.118;12.146;2023-03-03T19:59:45;97799.31;;;1.37;79.63
62025;BME280;47978;49.118;12.146;2023-03-03T20:08:10;97801.09;;;1.31;79.60
62025;BME280;47978;49.118;12.146;2023-03-03T20:12:18;97809.72;;;1.17;80.83
62025;BME280;47978;49.118;12.146;2023-03-03T20:16:26;97809.75;;;1.28;80.13
62025;BME280;47978;49.118;12.146;2023-03-03T20:20:35;97812.94;;;1.02;80.11
62025;BME280;47978;49.118;12.146;2023-03-03T20:24:51;97814.97;;;0.95;79.90
62025;BME280;47978;49.118;12.146;2023-03-03T20:33:17;97814.84;;;0.78;81.12
62025;BME280;47978;49.118;12.146;2023-03-03T20:37:24;97815.78;;;0.72;81.17
62025;BME280;47978;49.118;12.146;2023-03-03T20:41:39;97827.13;;;0.69;80.64
62025;BME280;47978;49.118;12.146;2023-03-03T20:45:46;97834.09;;;0.64;80.70
62025;BME280;47978;49.118;12.146;2023-03-03T20:49:53;97839.38;;;0.48;81.28
62025;BME280;47978;49.118;12.146;2023-03-03T20:54:00;97836.44;;;0.49;80.79
62025;BME280;47978;49.118;12.146;2023-03-03T20:58:08;97833.78;;;0.42;80.86
62025;BME280;47978;49.118;12.146;2023-03-03T21:02:14;97836.31;;;0.44;80.85
62025;BME280;47978;49.118;12.146;2023-03-03T21:06:18;97837.47;;;0.48;80.90
62025;BME280;47978;49.118;12.146;2023-03-03T21:10:20;97848.19;;;0.31;81.05
62025;BME280;47978;49.118;12.146;2023-03-03T21:14:25;97843.59;;;0.32;81.15
62025;BME280;47978;49.118;12.146;2023-03-03T21:18:27;97850.34;;;0.29;81.27
62025;BME280;47978;49.118;12.146;2023-03-03T21:22:29;97844.66;;;0.31;81.24
62025;BME280;47978;49.118;12.146;2023-03-03T21:26:43;97848.63;;;0.16;82.15
62025;BME280;47978;49.118;12.146;2023-03-03T21:35:19;97850.00;;;0.07;82.31
62025;BME280;47978;49.118;12.146;2023-03-03T21:39:22;97850.00;;;0.07;82.09
62025;BME280;47978;49.118;12.146;2023-03-03T21:43:33;97852.72;;;0.07;81.43
62025;BME280;47978;49.118;12.146;2023-03-03T21:47:35;97853.50;;;-0.04;82.12
62025;BME280;47978;49.118;12.146;2023-03-03T21:51:37;97854.78;;;-0.07;81.78
62025;BME280;47978;49.118;12.146;2023-03-03T21:55:39;97842.94;;;-0.12;82.01
62025;BME280;47978;49.118;12.146;2023-03-03T21:59:40;97840.31;;;-0.19;82.15
62025;BME280;47978;49.118;12.146;2023-03-03T22:03:42;97845.44;;;-0.11;81.94
62025;BME280;47978;49.118;12.146;2023-03-03T22:07:44;97840.84;;;-0.10;81.42
62025;BME280;47978;49.118;12.146;2023-03-03T22:11:46;97841.13;;;-0.18;81.57
62025;BME280;47978;49.118;12.146;2023-03-03T22:15:47;97843.13;;;-0.26;81.49
62025;BME280;47978;49.118;12.146;2023-03-03T22:19:49;97843.28;;;-0.39;81.83